Aeroporto :
LOGIN :

Iscrizione | Disclaimer

   EN    FR    IT 

 










Sommario :    VFR   VFR Marginale   IFR   IFR Intensivo   IFR Molto Intensivo
Visibilità : 
Base nubi : 
>= 8 km
>= 3000ft
5 / 8 km
1000 / 3000 ft
1500m / 5 km
500 / 1000 ft
800 / 1500m
200 / 500 ft
< 800m
< 200 ft
Simboli :   Temporali  Nebbia  Neve Forte  Precipitazioni Forti  Vento > 20 kt
SIGMETs :   Varie  Temporali  Ghiacco  Turbolenza  Onda orograficha  Ceneri Vulcaniche






- Altitudine del aeroporto : 1363 ft


ETIC - Grafenwohr Army Air Field

ULTIMO METAR :
  • 240755Z AUTO 25008KT 9999 FEW049 OVC060 06/M02 A2975 RMK AO2 SLP086 T00551023 $

METARs OBSOLETI :
  • 240655Z AUTO 27007KT 9999 SCT130 BKN150 04/M02 A2975 RMK AO2 SLP087 T00441018 $
  • 240555Z 00000KT 9999 SCT060 01/M00 A2975 RMK AO2A SLP088 T00141001 10018 21019 57010 $
  • 240526Z 00000KT 9999 SCT060 01/00 A2976 RMK SLP091 $
  • 240455Z AUTO 00000KT 9999 OVC070 M00/M01 A2977 RMK AO2 SLP095 T10011011 $
  • 240355Z AUTO 00000KT 9999 OVC065 M01/M02 A2977 RMK AO2 SLP095 T10081019 $

TAF TAF ETIC
Valido dal 23 a 18 ore il 25 a 00 ore UTC


231800Z 2318/2424 12006KT 9999 OVC040 620402 QNH2988INS
BECMG 2322/2323 03003KT 6000 BR BKN050 620503 QNH2984INS
TEMPO 2323/2402 3200 BR
BECMG 2401/2402 30003KT 3200 BR OVC040 620402 QNH2976INS
BECMG 2405/2406 20003KT 9999 NSW SCT040 OVC060 620601 QNH2971INS
BECMG 2411/2412 25006KT 9999 OVC040 620406 QNH2969INS
TEMPO 2412/2415 8000 -RASN
BECMG 2421/2422 23003KT 6000 BR OVC025 620258 QNH2966INS TX07/2412Z TN01/2403Z LAST NO AMDS AFT 2321 NEXT 2406



MetMap, La meteo Aeronautica in un colpo d'occhio ! - Copyright ORBIFLY Dicembre 2007 - Disclaimer

ORBIFLY MET'MAP TEAM :

Programmazione e sviluppo : Alexandra Zaïnal
Concezione : Baudouin d'Aumeries
Supporto tecnico e logistico : Manuel Goepfert
Aiuto : Marc-Olivier Méhu
Aiuto per la traduzione : Arnaldo La Scala




FONTI E CREDITI :

   NOAA